sensor_id;sensor_type;location;lat;lon;timestamp;P1;durP1;ratioP1;P2;durP2;ratioP2
76725;SDS011;65651;53.154;17.916;2024-02-28T00:00:29;29.10;;;14.10;;
76725;SDS011;65651;53.154;17.916;2024-02-28T00:03:16;28.30;;;13.70;;
76725;SDS011;65651;53.154;17.916;2024-02-28T00:05:43;30.50;;;13.80;;
76725;SDS011;65651;53.154;17.916;2024-02-28T00:08:12;28.10;;;13.40;;
76725;SDS011;65651;53.154;17.916;2024-02-28T00:10:39;30.50;;;13.70;;
76725;SDS011;65651;53.154;17.916;2024-02-28T00:13:06;29.50;;;13.60;;
76725;SDS011;65651;53.154;17.916;2024-02-28T00:15:34;29.40;;;13.90;;
76725;SDS011;65651;53.154;17.916;2024-02-28T00:18:01;28.50;;;13.80;;
76725;SDS011;65651;53.154;17.916;2024-02-28T00:20:28;29.30;;;13.30;;
76725;SDS011;65651;53.154;17.916;2024-02-28T00:22:56;30.10;;;13.90;;
76725;SDS011;65651;53.154;17.916;2024-02-28T00:25:23;25.50;;;12.30;;
76725;SDS011;65651;53.154;17.916;2024-02-28T00:27:50;26.30;;;12.70;;
76725;SDS011;65651;53.154;17.916;2024-02-28T00:30:17;28.70;;;13.60;;
76725;SDS011;65651;53.154;17.916;2024-02-28T00:32:45;28.00;;;13.30;;
76725;SDS011;65651;53.154;17.916;2024-02-28T00:35:12;26.50;;;13.40;;
76725;SDS011;65651;53.154;17.916;2024-02-28T00:37:40;33.30;;;14.70;;
76725;SDS011;65651;53.154;17.916;2024-02-28T00:40:07;32.30;;;14.60;;
76725;SDS011;65651;53.154;17.916;2024-02-28T00:42:35;30.30;;;14.10;;
76725;SDS011;65651;53.154;17.916;2024-02-28T00:45:02;32.20;;;14.90;;
76725;SDS011;65651;53.154;17.916;2024-02-28T00:47:30;29.80;;;13.50;;
76725;SDS011;65651;53.154;17.916;2024-02-28T00:49:58;34.10;;;15.60;;
76725;SDS011;65651;53.154;17.916;2024-02-28T00:52:25;33.90;;;14.40;;
76725;SDS011;65651;53.154;17.916;2024-02-28T00:54:52;35.80;;;14.60;;
76725;SDS011;65651;53.154;17.916;2024-02-28T00:57:19;40.80;;;15.60;;
76725;SDS011;65651;53.154;17.916;2024-02-28T00:59:46;36.50;;;15.80;;
76725;SDS011;65651;53.154;17.916;2024-02-28T01:02:16;42.30;;;16.30;;
76725;SDS011;65651;53.154;17.916;2024-02-28T01:04:43;47.70;;;16.50;;
76725;SDS011;65651;53.154;17.916;2024-02-28T01:07:10;47.50;;;16.60;;
76725;SDS011;65651;53.154;17.916;2024-02-28T01:09:37;41.60;;;16.70;;
76725;SDS011;65651;53.154;17.916;2024-02-28T01:12:03;49.90;;;17.70;;
76725;SDS011;65651;53.154;17.916;2024-02-28T01:14:31;45.90;;;16.60;;
76725;SDS011;65651;53.154;17.916;2024-02-28T01:16:58;46.30;;;16.10;;
76725;SDS011;65651;53.154;17.916;2024-02-28T01:19:25;44.00;;;17.60;;
76725;SDS011;65651;53.154;17.916;2024-02-28T01:21:52;45.40;;;17.40;;
76725;SDS011;65651;53.154;17.916;2024-02-28T01:24:19;48.30;;;16.70;;
76725;SDS011;65651;53.154;17.916;2024-02-28T01:26:46;52.40;;;17.80;;
76725;SDS011;65651;53.154;17.916;2024-02-28T01:29:13;49.50;;;18.00;;
76725;SDS011;65651;53.154;17.916;2024-02-28T01:31:40;56.90;;;17.50;;
76725;SDS011;65651;53.154;17.916;2024-02-28T01:34:08;52.20;;;18.10;;
76725;SDS011;65651;53.154;17.916;2024-02-28T01:36:35;43.30;;;15.30;;
76725;SDS011;65651;53.154;17.916;2024-02-28T01:39:02;41.10;;;14.30;;
76725;SDS011;65651;53.154;17.916;2024-02-28T01:41:30;43.30;;;15.80;;
76725;SDS011;65651;53.154;17.916;2024-02-28T01:43:57;36.10;;;14.50;;
76725;SDS011;65651;53.154;17.916;2024-02-28T01:46:25;35.50;;;14.40;;
76725;SDS011;65651;53.154;17.916;2024-02-28T01:48:53;35.00;;;14.20;;
76725;SDS011;65651;53.154;17.916;2024-02-28T01:51:22;37.50;;;14.30;;
76725;SDS011;65651;53.154;17.916;2024-02-28T01:53:51;35.20;;;14.10;;
76725;SDS011;65651;53.154;17.916;2024-02-28T01:56:20;37.80;;;15.50;;
76725;SDS011;65651;53.154;17.916;2024-02-28T01:58:49;34.60;;;13.30;;
76725;SDS011;65651;53.154;17.916;2024-02-28T02:01:17;30.50;;;12.70;;
76725;SDS011;65651;53.154;17.916;2024-02-28T02:03:46;32.80;;;12.90;;
76725;SDS011;65651;53.154;17.916;2024-02-28T02:06:13;33.10;;;13.00;;
76725;SDS011;65651;53.154;17.916;2024-02-28T02:08:40;41.40;;;14.10;;
76725;SDS011;65651;53.154;17.916;2024-02-28T02:11:08;33.40;;;13.40;;
76725;SDS011;65651;53.154;17.916;2024-02-28T02:13:35;43.10;;;15.10;;
76725;SDS011;65651;53.154;17.916;2024-02-28T02:16:02;35.40;;;14.00;;
76725;SDS011;65651;53.154;17.916;2024-02-28T02:18:30;40.80;;;14.20;;
76725;SDS011;65651;53.154;17.916;2024-02-28T02:21:02;39.10;;;13.80;;
76725;SDS011;65651;53.154;17.916;2024-02-28T02:23:33;36.40;;;12.60;;
76725;SDS011;65651;53.154;17.916;2024-02-28T02:26:00;36.40;;;12.60;;
76725;SDS011;65651;53.154;17.916;2024-02-28T02:28:27;41.60;;;13.90;;
76725;SDS011;65651;53.154;17.916;2024-02-28T02:30:54;39.40;;;13.40;;
76725;SDS011;65651;53.154;17.916;2024-02-28T02:33:21;39.10;;;14.70;;
76725;SDS011;65651;53.154;17.916;2024-02-28T02:35:49;40.80;;;15.00;;
76725;SDS011;65651;53.154;17.916;2024-02-28T02:38:16;36.10;;;14.20;;
76725;SDS011;65651;53.154;17.916;2024-02-28T02:40:43;41.30;;;14.60;;
76725;SDS011;65651;53.154;17.916;2024-02-28T02:43:10;43.40;;;13.90;;
76725;SDS011;65651;53.154;17.916;2024-02-28T02:45:37;36.30;;;13.50;;
76725;SDS011;65651;53.154;17.916;2024-02-28T02:48:04;41.40;;;15.40;;
76725;SDS011;65651;53.154;17.916;2024-02-28T02:50:32;40.30;;;15.40;;
76725;SDS011;65651;53.154;17.916;2024-02-28T02:52:59;42.90;;;15.20;;
76725;SDS011;65651;53.154;17.916;2024-02-28T02:55:26;50.80;;;15.20;;
76725;SDS011;65651;53.154;17.916;2024-02-28T02:57:53;41.30;;;14.10;;
76725;SDS011;65651;53.154;17.916;2024-02-28T03:00:20;45.80;;;13.90;;
76725;SDS011;65651;53.154;17.916;2024-02-28T03:02:48;42.90;;;14.00;;
76725;SDS011;65651;53.154;17.916;2024-02-28T03:05:15;46.50;;;16.10;;
76725;SDS011;65651;53.154;17.916;2024-02-28T03:07:42;51.30;;;14.50;;
76725;SDS011;65651;53.154;17.916;2024-02-28T03:10:09;55.10;;;15.50;;
76725;SDS011;65651;53.154;17.916;2024-02-28T03:12:37;39.10;;;13.50;;
76725;SDS011;65651;53.154;17.916;2024-02-28T03:15:04;41.70;;;13.60;;
76725;SDS011;65651;53.154;17.916;2024-02-28T03:17:32;45.00;;;14.80;;
76725;SDS011;65651;53.154;17.916;2024-02-28T03:19:59;42.50;;;13.70;;
76725;SDS011;65651;53.154;17.916;2024-02-28T03:22:26;44.00;;;13.70;;
76725;SDS011;65651;53.154;17.916;2024-02-28T03:24:53;44.80;;;13.70;;
76725;SDS011;65651;53.154;17.916;2024-02-28T03:27:20;45.00;;;14.70;;
76725;SDS011;65651;53.154;17.916;2024-02-28T03:29:47;51.90;;;15.80;;
76725;SDS011;65651;53.154;17.916;2024-02-28T03:32:14;47.80;;;15.80;;
76725;SDS011;65651;53.154;17.916;2024-02-28T03:34:41;42.80;;;14.30;;
76725;SDS011;65651;53.154;17.916;2024-02-28T03:37:08;57.30;;;17.40;;
76725;SDS011;65651;53.154;17.916;2024-02-28T03:39:35;47.30;;;16.50;;
76725;SDS011;65651;53.154;17.916;2024-02-28T03:42:02;53.70;;;15.90;;
76725;SDS011;65651;53.154;17.916;2024-02-28T03:44:29;49.20;;;14.90;;
76725;SDS011;65651;53.154;17.916;2024-02-28T03:46:56;46.50;;;15.40;;
76725;SDS011;65651;53.154;17.916;2024-02-28T03:49:23;50.20;;;16.00;;
76725;SDS011;65651;53.154;17.916;2024-02-28T03:51:50;45.10;;;15.40;;
76725;SDS011;65651;53.154;17.916;2024-02-28T03:54:17;46.10;;;16.10;;
76725;SDS011;65651;53.154;17.916;2024-02-28T03:56:44;48.50;;;16.60;;
76725;SDS011;65651;53.154;17.916;2024-02-28T03:59:11;47.40;;;15.50;;
76725;SDS011;65651;53.154;17.916;2024-02-28T04:01:38;41.90;;;14.10;;
76725;SDS011;65651;53.154;17.916;2024-02-28T04:04:05;36.60;;;13.90;;
76725;SDS011;65651;53.154;17.916;2024-02-28T04:06:34;44.90;;;14.70;;
76725;SDS011;65651;53.154;17.916;2024-02-28T04:09:01;39.00;;;15.10;;
76725;SDS011;65651;53.154;17.916;2024-02-28T04:11:29;41.10;;;14.50;;
76725;SDS011;65651;53.154;17.916;2024-02-28T04:13:56;41.20;;;15.20;;
76725;SDS011;65651;53.154;17.916;2024-02-28T04:16:23;40.00;;;14.40;;
76725;SDS011;65651;53.154;17.916;2024-02-28T04:18:50;35.10;;;13.00;;
76725;SDS011;65651;53.154;17.916;2024-02-28T04:21:18;35.50;;;13.50;;
76725;SDS011;65651;53.154;17.916;2024-02-28T04:23:45;42.60;;;14.60;;
76725;SDS011;65651;53.154;17.916;2024-02-28T04:26:12;35.80;;;13.70;;
76725;SDS011;65651;53.154;17.916;2024-02-28T04:28:40;40.60;;;15.60;;
76725;SDS011;65651;53.154;17.916;2024-02-28T04:31:08;32.40;;;13.00;;
76725;SDS011;65651;53.154;17.916;2024-02-28T04:33:36;34.70;;;13.40;;
76725;SDS011;65651;53.154;17.916;2024-02-28T04:36:03;37.60;;;13.50;;
76725;SDS011;65651;53.154;17.916;2024-02-28T04:38:33;43.00;;;13.70;;
76725;SDS011;65651;53.154;17.916;2024-02-28T04:41:00;47.50;;;16.60;;
76725;SDS011;65651;53.154;17.916;2024-02-28T04:43:27;40.40;;;14.70;;
76725;SDS011;65651;53.154;17.916;2024-02-28T04:45:54;44.50;;;15.00;;
76725;SDS011;65651;53.154;17.916;2024-02-28T04:48:21;39.40;;;13.40;;
76725;SDS011;65651;53.154;17.916;2024-02-28T04:50:48;39.50;;;13.80;;
76725;SDS011;65651;53.154;17.916;2024-02-28T04:53:15;45.00;;;15.40;;
76725;SDS011;65651;53.154;17.916;2024-02-28T04:55:42;46.30;;;15.50;;
76725;SDS011;65651;53.154;17.916;2024-02-28T04:58:09;43.90;;;15.00;;
76725;SDS011;65651;53.154;17.916;2024-02-28T05:00:36;38.90;;;14.50;;
76725;SDS011;65651;53.154;17.916;2024-02-28T05:03:03;51.10;;;17.00;;
76725;SDS011;65651;53.154;17.916;2024-02-28T05:05:30;51.30;;;17.10;;
76725;SDS011;65651;53.154;17.916;2024-02-28T05:07:57;47.20;;;15.30;;
76725;SDS011;65651;53.154;17.916;2024-02-28T05:10:24;51.00;;;15.20;;
76725;SDS011;65651;53.154;17.916;2024-02-28T05:12:51;46.50;;;15.30;;
76725;SDS011;65651;53.154;17.916;2024-02-28T05:15:18;39.10;;;13.80;;
76725;SDS011;65651;53.154;17.916;2024-02-28T05:17:46;52.10;;;16.90;;
76725;SDS011;65651;53.154;17.916;2024-02-28T05:20:13;47.40;;;16.00;;
76725;SDS011;65651;53.154;17.916;2024-02-28T05:22:40;37.40;;;13.60;;
76725;SDS011;65651;53.154;17.916;2024-02-28T05:25:09;40.60;;;14.00;;
76725;SDS011;65651;53.154;17.916;2024-02-28T05:27:36;42.90;;;13.90;;
76725;SDS011;65651;53.154;17.916;2024-02-28T05:30:03;37.40;;;13.80;;
76725;SDS011;65651;53.154;17.916;2024-02-28T05:32:32;40.30;;;14.90;;
76725;SDS011;65651;53.154;17.916;2024-02-28T05:34:59;45.60;;;15.40;;
76725;SDS011;65651;53.154;17.916;2024-02-28T05:37:26;40.60;;;13.80;;
76725;SDS011;65651;53.154;17.916;2024-02-28T05:39:54;39.60;;;13.70;;
76725;SDS011;65651;53.154;17.916;2024-02-28T05:42:21;48.30;;;15.90;;
76725;SDS011;65651;53.154;17.916;2024-02-28T05:44:51;39.80;;;13.10;;
76725;SDS011;65651;53.154;17.916;2024-02-28T05:47:21;41.10;;;14.30;;
76725;SDS011;65651;53.154;17.916;2024-02-28T05:49:48;40.10;;;13.50;;
76725;SDS011;65651;53.154;17.916;2024-02-28T05:52:15;45.20;;;14.20;;
76725;SDS011;65651;53.154;17.916;2024-02-28T05:54:42;39.30;;;13.70;;
76725;SDS011;65651;53.154;17.916;2024-02-28T05:57:09;43.30;;;13.70;;
76725;SDS011;65651;53.154;17.916;2024-02-28T05:59:36;44.40;;;14.50;;
76725;SDS011;65651;53.154;17.916;2024-02-28T06:02:04;36.30;;;13.10;;
76725;SDS011;65651;53.154;17.916;2024-02-28T06:04:33;40.30;;;13.00;;
76725;SDS011;65651;53.154;17.916;2024-02-28T06:07:00;34.90;;;12.40;;
76725;SDS011;65651;53.154;17.916;2024-02-28T06:09:27;41.60;;;14.00;;
76725;SDS011;65651;53.154;17.916;2024-02-28T06:11:55;42.20;;;14.40;;
76725;SDS011;65651;53.154;17.916;2024-02-28T06:14:22;43.40;;;14.40;;
76725;SDS011;65651;53.154;17.916;2024-02-28T06:16:49;43.40;;;15.20;;
76725;SDS011;65651;53.154;17.916;2024-02-28T06:19:16;43.30;;;15.00;;
76725;SDS011;65651;53.154;17.916;2024-02-28T06:21:43;38.60;;;13.20;;
76725;SDS011;65651;53.154;17.916;2024-02-28T06:24:10;42.10;;;14.00;;
76725;SDS011;65651;53.154;17.916;2024-02-28T06:26:37;33.60;;;12.30;;
76725;SDS011;65651;53.154;17.916;2024-02-28T06:29:10;41.10;;;14.30;;
76725;SDS011;65651;53.154;17.916;2024-02-28T06:31:37;36.60;;;12.90;;
76725;SDS011;65651;53.154;17.916;2024-02-28T06:34:04;42.40;;;14.20;;
76725;SDS011;65651;53.154;17.916;2024-02-28T06:36:36;39.70;;;15.40;;
76725;SDS011;65651;53.154;17.916;2024-02-28T06:39:04;43.30;;;15.20;;
76725;SDS011;65651;53.154;17.916;2024-02-28T06:41:31;39.10;;;15.30;;
76725;SDS011;65651;53.154;17.916;2024-02-28T06:43:58;44.30;;;15.00;;
76725;SDS011;65651;53.154;17.916;2024-02-28T06:46:25;48.70;;;15.60;;
76725;SDS011;65651;53.154;17.916;2024-02-28T06:48:53;51.30;;;16.20;;
76725;SDS011;65651;53.154;17.916;2024-02-28T06:51:20;40.40;;;13.90;;
76725;SDS011;65651;53.154;17.916;2024-02-28T06:53:47;45.60;;;15.80;;
76725;SDS011;65651;53.154;17.916;2024-02-28T06:56:18;42.30;;;13.60;;
76725;SDS011;65651;53.154;17.916;2024-02-28T06:58:45;39.80;;;13.80;;
76725;SDS011;65651;53.154;17.916;2024-02-28T07:01:12;45.70;;;15.70;;
76725;SDS011;65651;53.154;17.916;2024-02-28T07:03:39;42.80;;;14.30;;
76725;SDS011;65651;53.154;17.916;2024-02-28T07:06:06;48.10;;;15.40;;
76725;SDS011;65651;53.154;17.916;2024-02-28T07:08:36;42.30;;;14.10;;
76725;SDS011;65651;53.154;17.916;2024-02-28T07:11:03;48.40;;;14.00;;
76725;SDS011;65651;53.154;17.916;2024-02-28T07:13:30;50.40;;;16.10;;
76725;SDS011;65651;53.154;17.916;2024-02-28T07:16:00;46.40;;;15.10;;
76725;SDS011;65651;53.154;17.916;2024-02-28T07:18:27;42.00;;;13.70;;
76725;SDS011;65651;53.154;17.916;2024-02-28T07:20:56;42.00;;;13.60;;
76725;SDS011;65651;53.154;17.916;2024-02-28T07:23:26;35.60;;;12.90;;
76725;SDS011;65651;53.154;17.916;2024-02-28T07:25:52;34.70;;;13.30;;
76725;SDS011;65651;53.154;17.916;2024-02-28T07:28:20;35.50;;;13.00;;
76725;SDS011;65651;53.154;17.916;2024-02-28T07:30:46;31.40;;;12.80;;
76725;SDS011;65651;53.154;17.916;2024-02-28T07:33:14;33.50;;;13.10;;
76725;SDS011;65651;53.154;17.916;2024-02-28T07:35:48;36.90;;;13.40;;
76725;SDS011;65651;53.154;17.916;2024-02-28T07:38:19;33.10;;;12.90;;
76725;SDS011;65651;53.154;17.916;2024-02-28T07:40:47;35.40;;;12.80;;
76725;SDS011;65651;53.154;17.916;2024-02-28T07:43:15;38.70;;;17.70;;
76725;SDS011;65651;53.154;17.916;2024-02-28T07:45:42;37.10;;;17.80;;
76725;SDS011;65651;53.154;17.916;2024-02-28T07:48:09;46.00;;;21.60;;
76725;SDS011;65651;53.154;17.916;2024-02-28T07:50:36;47.60;;;22.30;;
76725;SDS011;65651;53.154;17.916;2024-02-28T07:53:04;33.10;;;16.50;;
76725;SDS011;65651;53.154;17.916;2024-02-28T07:55:31;29.80;;;14.60;;
76725;SDS011;65651;53.154;17.916;2024-02-28T07:57:58;26.10;;;12.50;;
76725;SDS011;65651;53.154;17.916;2024-02-28T08:00:25;23.90;;;11.90;;
76725;SDS011;65651;53.154;17.916;2024-02-28T08:02:52;24.30;;;12.70;;
76725;SDS011;65651;53.154;17.916;2024-02-28T08:05:19;23.40;;;11.10;;
76725;SDS011;65651;53.154;17.916;2024-02-28T08:07:46;23.10;;;10.90;;
76725;SDS011;65651;53.154;17.916;2024-02-28T08:10:12;22.10;;;10.80;;
76725;SDS011;65651;53.154;17.916;2024-02-28T08:12:41;23.70;;;10.80;;
76725;SDS011;65651;53.154;17.916;2024-02-28T08:15:08;22.60;;;11.40;;
76725;SDS011;65651;53.154;17.916;2024-02-28T08:17:35;21.90;;;10.80;;
76725;SDS011;65651;53.154;17.916;2024-02-28T08:20:04;20.60;;;11.00;;
76725;SDS011;65651;53.154;17.916;2024-02-28T08:22:32;18.30;;;10.30;;
76725;SDS011;65651;53.154;17.916;2024-02-28T08:24:58;22.60;;;11.70;;
76725;SDS011;65651;53.154;17.916;2024-02-28T08:27:25;21.10;;;11.00;;
76725;SDS011;65651;53.154;17.916;2024-02-28T08:29:52;18.50;;;9.40;;
76725;SDS011;65651;53.154;17.916;2024-02-28T08:32:19;20.10;;;10.60;;
76725;SDS011;65651;53.154;17.916;2024-02-28T08:34:47;17.90;;;10.10;;
76725;SDS011;65651;53.154;17.916;2024-02-28T08:37:15;20.70;;;10.50;;
76725;SDS011;65651;53.154;17.916;2024-02-28T08:39:43;18.80;;;10.00;;
76725;SDS011;65651;53.154;17.916;2024-02-28T08:42:10;22.20;;;11.10;;
76725;SDS011;65651;53.154;17.916;2024-02-28T08:44:38;24.10;;;12.30;;
76725;SDS011;65651;53.154;17.916;2024-02-28T08:47:05;22.70;;;11.30;;
76725;SDS011;65651;53.154;17.916;2024-02-28T08:49:36;28.60;;;11.40;;
76725;SDS011;65651;53.154;17.916;2024-02-28T08:52:05;24.40;;;11.50;;
76725;SDS011;65651;53.154;17.916;2024-02-28T08:54:32;27.50;;;11.80;;
76725;SDS011;65651;53.154;17.916;2024-02-28T08:56:59;26.80;;;11.10;;
76725;SDS011;65651;53.154;17.916;2024-02-28T08:59:26;24.60;;;11.30;;
76725;SDS011;65651;53.154;17.916;2024-02-28T09:01:53;25.60;;;12.50;;
76725;SDS011;65651;53.154;17.916;2024-02-28T09:04:20;28.50;;;12.10;;
76725;SDS011;65651;53.154;17.916;2024-02-28T09:06:48;25.30;;;11.60;;
76725;SDS011;65651;53.154;17.916;2024-02-28T09:09:14;25.80;;;11.90;;
76725;SDS011;65651;53.154;17.916;2024-02-28T09:11:41;27.70;;;12.10;;
76725;SDS011;65651;53.154;17.916;2024-02-28T09:14:08;26.60;;;12.30;;
76725;SDS011;65651;53.154;17.916;2024-02-28T09:16:35;28.80;;;12.10;;
76725;SDS011;65651;53.154;17.916;2024-02-28T09:19:03;31.00;;;12.20;;
76725;SDS011;65651;53.154;17.916;2024-02-28T09:21:31;32.10;;;13.10;;
76725;SDS011;65651;53.154;17.916;2024-02-28T09:23:58;31.50;;;13.20;;
76725;SDS011;65651;53.154;17.916;2024-02-28T09:26:25;28.70;;;12.10;;
76725;SDS011;65651;53.154;17.916;2024-02-28T09:28:52;30.80;;;11.80;;
76725;SDS011;65651;53.154;17.916;2024-02-28T09:31:19;38.10;;;15.00;;
76725;SDS011;65651;53.154;17.916;2024-02-28T09:33:46;34.50;;;13.80;;
76725;SDS011;65651;53.154;17.916;2024-02-28T09:36:13;32.60;;;13.30;;
76725;SDS011;65651;53.154;17.916;2024-02-28T09:38:40;28.30;;;12.40;;
76725;SDS011;65651;53.154;17.916;2024-02-28T09:41:08;30.70;;;12.50;;
76725;SDS011;65651;53.154;17.916;2024-02-28T09:43:42;30.30;;;12.70;;
76725;SDS011;65651;53.154;17.916;2024-02-28T09:46:09;27.30;;;11.40;;
76725;SDS011;65651;53.154;17.916;2024-02-28T09:48:39;26.40;;;12.10;;
76725;SDS011;65651;53.154;17.916;2024-02-28T09:51:10;28.10;;;11.90;;
76725;SDS011;65651;53.154;17.916;2024-02-28T09:53:39;24.00;;;11.00;;
76725;SDS011;65651;53.154;17.916;2024-02-28T09:56:06;25.10;;;11.40;;
76725;SDS011;65651;53.154;17.916;2024-02-28T09:58:33;24.20;;;11.70;;
76725;SDS011;65651;53.154;17.916;2024-02-28T10:01:02;31.30;;;14.80;;
76725;SDS011;65651;53.154;17.916;2024-02-28T10:03:31;27.10;;;12.60;;
76725;SDS011;65651;53.154;17.916;2024-02-28T10:05:59;27.30;;;13.60;;
76725;SDS011;65651;53.154;17.916;2024-02-28T10:08:26;24.50;;;13.30;;
76725;SDS011;65651;53.154;17.916;2024-02-28T10:10:53;20.60;;;11.40;;
76725;SDS011;65651;53.154;17.916;2024-02-28T10:13:22;22.90;;;11.40;;
76725;SDS011;65651;53.154;17.916;2024-02-28T10:15:49;25.20;;;12.30;;
76725;SDS011;65651;53.154;17.916;2024-02-28T10:18:16;19.60;;;10.60;;
76725;SDS011;65651;53.154;17.916;2024-02-28T10:20:43;19.90;;;10.90;;
76725;SDS011;65651;53.154;17.916;2024-02-28T10:23:10;15.90;;;9.50;;
76725;SDS011;65651;53.154;17.916;2024-02-28T10:25:44;18.30;;;9.90;;
76725;SDS011;65651;53.154;17.916;2024-02-28T10:28:12;26.60;;;13.10;;
76725;SDS011;65651;53.154;17.916;2024-02-28T10:30:41;24.20;;;12.00;;
76725;SDS011;65651;53.154;17.916;2024-02-28T10:33:13;20.10;;;11.10;;
76725;SDS011;65651;53.154;17.916;2024-02-28T10:35:41;19.90;;;11.70;;
76725;SDS011;65651;53.154;17.916;2024-02-28T10:38:12;22.50;;;10.80;;
76725;SDS011;65651;53.154;17.916;2024-02-28T10:40:40;23.30;;;11.80;;
76725;SDS011;65651;53.154;17.916;2024-02-28T10:43:08;18.70;;;10.50;;
76725;SDS011;65651;53.154;17.916;2024-02-28T10:45:36;21.80;;;11.40;;
76725;SDS011;65651;53.154;17.916;2024-02-28T10:48:07;19.10;;;10.70;;
76725;SDS011;65651;53.154;17.916;2024-02-28T10:50:35;20.80;;;11.30;;
76725;SDS011;65651;53.154;17.916;2024-02-28T10:53:03;21.30;;;11.70;;
76725;SDS011;65651;53.154;17.916;2024-02-28T10:55:32;19.60;;;10.30;;
76725;SDS011;65651;53.154;17.916;2024-02-28T10:58:06;22.50;;;11.70;;
76725;SDS011;65651;53.154;17.916;2024-02-28T11:00:36;21.20;;;12.20;;
76725;SDS011;65651;53.154;17.916;2024-02-28T11:03:05;21.00;;;11.50;;
76725;SDS011;65651;53.154;17.916;2024-02-28T11:05:39;25.30;;;13.00;;
76725;SDS011;65651;53.154;17.916;2024-02-28T11:08:10;19.30;;;11.40;;
76725;SDS011;65651;53.154;17.916;2024-02-28T11:10:41;22.80;;;13.20;;
76725;SDS011;65651;53.154;17.916;2024-02-28T11:13:23;21.40;;;12.40;;
76725;SDS011;65651;53.154;17.916;2024-02-28T11:15:52;20.60;;;11.80;;
76725;SDS011;65651;53.154;17.916;2024-02-28T11:18:19;19.40;;;11.30;;
76725;SDS011;65651;53.154;17.916;2024-02-28T11:20:46;18.70;;;12.00;;
76725;SDS011;65651;53.154;17.916;2024-02-28T11:23:14;21.90;;;12.60;;
76725;SDS011;65651;53.154;17.916;2024-02-28T11:25:44;21.80;;;12.80;;
76725;SDS011;65651;53.154;17.916;2024-02-28T11:28:15;19.60;;;11.80;;
76725;SDS011;65651;53.154;17.916;2024-02-28T11:30:42;19.80;;;11.50;;
76725;SDS011;65651;53.154;17.916;2024-02-28T11:33:09;21.10;;;11.20;;
76725;SDS011;65651;53.154;17.916;2024-02-28T11:35:36;18.30;;;10.60;;
76725;SDS011;65651;53.154;17.916;2024-02-28T11:38:06;19.60;;;10.80;;
76725;SDS011;65651;53.154;17.916;2024-02-28T11:40:33;20.70;;;11.40;;
76725;SDS011;65651;53.154;17.916;2024-02-28T11:43:00;17.30;;;9.60;;
76725;SDS011;65651;53.154;17.916;2024-02-28T11:45:30;18.10;;;11.10;;
76725;SDS011;65651;53.154;17.916;2024-02-28T11:47:57;19.20;;;10.60;;
76725;SDS011;65651;53.154;17.916;2024-02-28T11:50:24;19.60;;;11.10;;
76725;SDS011;65651;53.154;17.916;2024-02-28T11:52:53;16.60;;;8.90;;
76725;SDS011;65651;53.154;17.916;2024-02-28T11:55:20;18.50;;;10.40;;
76725;SDS011;65651;53.154;17.916;2024-02-28T11:57:47;19.30;;;10.60;;
76725;SDS011;65651;53.154;17.916;2024-02-28T12:00:14;19.50;;;10.40;;
76725;SDS011;65651;53.154;17.916;2024-02-28T12:02:42;19.10;;;10.40;;
76725;SDS011;65651;53.154;17.916;2024-02-28T12:05:09;17.30;;;9.80;;
76725;SDS011;65651;53.154;17.916;2024-02-28T12:07:36;27.70;;;12.60;;
76725;SDS011;65651;53.154;17.916;2024-02-28T12:10:03;25.30;;;13.40;;
76725;SDS011;65651;53.154;17.916;2024-02-28T12:12:31;28.50;;;14.10;;
76725;SDS011;65651;53.154;17.916;2024-02-28T12:14:58;30.10;;;14.10;;
76725;SDS011;65651;53.154;17.916;2024-02-28T12:17:31;28.00;;;13.70;;
76725;SDS011;65651;53.154;17.916;2024-02-28T12:19:59;27.10;;;13.00;;
76725;SDS011;65651;53.154;17.916;2024-02-28T12:22:26;23.80;;;12.50;;
76725;SDS011;65651;53.154;17.916;2024-02-28T12:24:54;26.70;;;13.10;;
76725;SDS011;65651;53.154;17.916;2024-02-28T12:27:20;23.50;;;13.00;;
76725;SDS011;65651;53.154;17.916;2024-02-28T12:29:47;24.90;;;12.50;;
76725;SDS011;65651;53.154;17.916;2024-02-28T12:32:14;19.00;;;9.30;;
76725;SDS011;65651;53.154;17.916;2024-02-28T12:34:44;22.10;;;10.60;;
76725;SDS011;65651;53.154;17.916;2024-02-28T12:37:11;19.70;;;10.40;;
76725;SDS011;65651;53.154;17.916;2024-02-28T12:39:38;21.30;;;11.00;;
76725;SDS011;65651;53.154;17.916;2024-02-28T12:42:06;20.50;;;11.60;;
76725;SDS011;65651;53.154;17.916;2024-02-28T12:44:34;25.70;;;12.90;;
76725;SDS011;65651;53.154;17.916;2024-02-28T12:47:01;26.90;;;13.60;;
76725;SDS011;65651;53.154;17.916;2024-02-28T12:49:28;29.50;;;14.50;;
76725;SDS011;65651;53.154;17.916;2024-02-28T12:51:55;35.00;;;15.90;;
76725;SDS011;65651;53.154;17.916;2024-02-28T12:54:22;34.90;;;16.60;;
76725;SDS011;65651;53.154;17.916;2024-02-28T12:56:49;40.00;;;19.30;;
76725;SDS011;65651;53.154;17.916;2024-02-28T12:59:16;40.60;;;20.20;;
76725;SDS011;65651;53.154;17.916;2024-02-28T13:01:43;34.80;;;17.70;;
76725;SDS011;65651;53.154;17.916;2024-02-28T13:04:11;38.70;;;18.40;;
76725;SDS011;65651;53.154;17.916;2024-02-28T13:06:38;29.10;;;14.50;;
76725;SDS011;65651;53.154;17.916;2024-02-28T13:09:06;26.60;;;13.40;;
76725;SDS011;65651;53.154;17.916;2024-02-28T13:11:39;25.40;;;13.40;;
76725;SDS011;65651;53.154;17.916;2024-02-28T13:14:06;26.50;;;13.90;;
76725;SDS011;65651;53.154;17.916;2024-02-28T13:16:35;26.50;;;12.50;;
76725;SDS011;65651;53.154;17.916;2024-02-28T13:19:02;22.50;;;12.00;;
76725;SDS011;65651;53.154;17.916;2024-02-28T13:21:29;19.90;;;11.40;;
76725;SDS011;65651;53.154;17.916;2024-02-28T13:23:56;24.50;;;12.80;;
76725;SDS011;65651;53.154;17.916;2024-02-28T13:26:24;22.10;;;11.70;;
76725;SDS011;65651;53.154;17.916;2024-02-28T13:28:51;39.80;;;17.70;;
76725;SDS011;65651;53.154;17.916;2024-02-28T13:31:18;56.80;;;24.70;;
76725;SDS011;65651;53.154;17.916;2024-02-28T13:33:45;50.10;;;21.00;;
76725;SDS011;65651;53.154;17.916;2024-02-28T13:36:12;43.50;;;18.90;;
76725;SDS011;65651;53.154;17.916;2024-02-28T13:38:39;61.70;;;27.40;;
76725;SDS011;65651;53.154;17.916;2024-02-28T13:41:06;52.40;;;22.30;;
76725;SDS011;65651;53.154;17.916;2024-02-28T13:43:33;30.50;;;14.40;;
76725;SDS011;65651;53.154;17.916;2024-02-28T13:46:02;28.20;;;14.50;;
76725;SDS011;65651;53.154;17.916;2024-02-28T13:48:30;25.70;;;13.30;;
76725;SDS011;65651;53.154;17.916;2024-02-28T13:50:59;30.60;;;15.50;;
76725;SDS011;65651;53.154;17.916;2024-02-28T13:53:26;31.90;;;16.10;;
76725;SDS011;65651;53.154;17.916;2024-02-28T13:55:54;36.30;;;17.00;;
76725;SDS011;65651;53.154;17.916;2024-02-28T13:58:21;35.30;;;16.90;;
76725;SDS011;65651;53.154;17.916;2024-02-28T14:00:48;25.00;;;12.30;;
76725;SDS011;65651;53.154;17.916;2024-02-28T14:03:15;27.30;;;12.90;;
76725;SDS011;65651;53.154;17.916;2024-02-28T14:05:42;25.90;;;13.00;;
76725;SDS011;65651;53.154;17.916;2024-02-28T14:08:10;26.70;;;12.90;;
76725;SDS011;65651;53.154;17.916;2024-02-28T14:10:41;25.90;;;13.50;;